sensor_id;sensor_type;location;lat;lon;timestamp;temperature;humidity
30206;DHT22;17010;51.306;3.150;2022-12-04T00:01:50;2.50;99.90
30206;DHT22;17010;51.306;3.150;2022-12-04T00:04:16;2.60;99.90
30206;DHT22;17010;51.306;3.150;2022-12-04T00:06:42;2.60;99.90
30206;DHT22;17010;51.306;3.150;2022-12-04T00:09:09;2.60;99.90
30206;DHT22;17010;51.306;3.150;2022-12-04T00:11:35;2.60;99.90
30206;DHT22;17010;51.306;3.150;2022-12-04T00:14:01;2.60;99.90
30206;DHT22;17010;51.306;3.150;2022-12-04T00:16:28;2.60;99.90
30206;DHT22;17010;51.306;3.150;2022-12-04T00:18:55;2.60;99.90
30206;DHT22;17010;51.306;3.150;2022-12-04T00:21:22;2.70;99.90
30206;DHT22;17010;51.306;3.150;2022-12-04T00:23:49;2.70;99.90
30206;DHT22;17010;51.306;3.150;2022-12-04T00:26:20;2.80;99.90
30206;DHT22;17010;51.306;3.150;2022-12-04T00:28:48;2.80;99.90
30206;DHT22;17010;51.306;3.150;2022-12-04T00:31:16;2.80;99.90
30206;DHT22;17010;51.306;3.150;2022-12-04T00:33:43;2.70;99.90
30206;DHT22;17010;51.306;3.150;2022-12-04T00:36:12;2.70;99.90
30206;DHT22;17010;51.306;3.150;2022-12-04T00:38:39;2.70;99.90
30206;DHT22;17010;51.306;3.150;2022-12-04T00:41:09;2.70;99.90
30206;DHT22;17010;51.306;3.150;2022-12-04T00:43:35;2.80;99.90
30206;DHT22;17010;51.306;3.150;2022-12-04T00:46:01;2.80;99.90
30206;DHT22;17010;51.306;3.150;2022-12-04T00:48:27;2.70;99.90
30206;DHT22;17010;51.306;3.150;2022-12-04T00:50:53;2.70;99.90
30206;DHT22;17010;51.306;3.150;2022-12-04T00:53:20;2.70;99.90
30206;DHT22;17010;51.306;3.150;2022-12-04T00:55:46;2.80;99.90
30206;DHT22;17010;51.306;3.150;2022-12-04T00:58:12;2.70;99.90
30206;DHT22;17010;51.306;3.150;2022-12-04T01:00:40;2.60;99.90
30206;DHT22;17010;51.306;3.150;2022-12-04T01:03:07;2.60;99.90
30206;DHT22;17010;51.306;3.150;2022-12-04T01:05:44;2.60;99.90
30206;DHT22;17010;51.306;3.150;2022-12-04T01:08:11;2.60;99.90
30206;DHT22;17010;51.306;3.150;2022-12-04T01:10:39;2.60;99.90
30206;DHT22;17010;51.306;3.150;2022-12-04T01:13:06;2.60;99.90
30206;DHT22;17010;51.306;3.150;2022-12-04T01:15:32;2.60;99.90
30206;DHT22;17010;51.306;3.150;2022-12-04T01:17:58;2.60;99.90
30206;DHT22;17010;51.306;3.150;2022-12-04T01:20:25;2.60;99.90
30206;DHT22;17010;51.306;3.150;2022-12-04T01:22:51;2.70;99.90
30206;DHT22;17010;51.306;3.150;2022-12-04T01:25:17;2.60;99.90
30206;DHT22;17010;51.306;3.150;2022-12-04T01:27:43;2.50;99.90
30206;DHT22;17010;51.306;3.150;2022-12-04T01:30:09;2.50;99.90
30206;DHT22;17010;51.306;3.150;2022-12-04T01:32:36;2.50;99.90
30206;DHT22;17010;51.306;3.150;2022-12-04T01:35:02;2.50;99.90
30206;DHT22;17010;51.306;3.150;2022-12-04T01:37:31;2.50;99.90
30206;DHT22;17010;51.306;3.150;2022-12-04T01:39:58;2.50;99.90
30206;DHT22;17010;51.306;3.150;2022-12-04T01:42:24;2.50;99.90
30206;DHT22;17010;51.306;3.150;2022-12-04T01:47:56;2.50;99.90
30206;DHT22;17010;51.306;3.150;2022-12-04T01:50:23;2.60;99.90
30206;DHT22;17010;51.306;3.150;2022-12-04T01:52:50;2.50;99.90
30206;DHT22;17010;51.306;3.150;2022-12-04T01:55:16;2.60;99.90
30206;DHT22;17010;51.306;3.150;2022-12-04T01:57:43;2.50;99.90
30206;DHT22;17010;51.306;3.150;2022-12-04T02:00:13;2.50;99.90
30206;DHT22;17010;51.306;3.150;2022-12-04T02:02:41;2.60;99.90
30206;DHT22;17010;51.306;3.150;2022-12-04T02:05:17;2.60;99.90
30206;DHT22;17010;51.306;3.150;2022-12-04T02:07:45;2.70;99.90
30206;DHT22;17010;51.306;3.150;2022-12-04T02:10:11;2.60;99.90
30206;DHT22;17010;51.306;3.150;2022-12-04T02:12:50;2.60;99.90
30206;DHT22;17010;51.306;3.150;2022-12-04T02:15:26;2.60;99.90
30206;DHT22;17010;51.306;3.150;2022-12-04T02:20:56;2.50;99.90
30206;DHT22;17010;51.306;3.150;2022-12-04T02:23:36;2.50;99.90
30206;DHT22;17010;51.306;3.150;2022-12-04T02:32:08;2.60;99.90
30206;DHT22;17010;51.306;3.150;2022-12-04T02:34:56;2.60;99.90
30206;DHT22;17010;51.306;3.150;2022-12-04T02:37:29;2.60;99.90
30206;DHT22;17010;51.306;3.150;2022-12-04T02:46:06;2.50;99.90
30206;DHT22;17010;51.306;3.150;2022-12-04T02:48:36;2.50;99.90
30206;DHT22;17010;51.306;3.150;2022-12-04T02:51:04;2.50;99.90
30206;DHT22;17010;51.306;3.150;2022-12-04T02:53:39;2.40;99.90
30206;DHT22;17010;51.306;3.150;2022-12-04T02:56:22;2.40;99.90
30206;DHT22;17010;51.306;3.150;2022-12-04T02:59:01;2.30;99.90
30206;DHT22;17010;51.306;3.150;2022-12-04T03:01:31;2.40;99.90
30206;DHT22;17010;51.306;3.150;2022-12-04T03:04:12;2.30;99.90
30206;DHT22;17010;51.306;3.150;2022-12-04T03:06:40;2.30;99.90
30206;DHT22;17010;51.306;3.150;2022-12-04T03:09:40;2.30;99.90
30206;DHT22;17010;51.306;3.150;2022-12-04T03:12:52;2.30;99.90
30206;DHT22;17010;51.306;3.150;2022-12-04T03:15:25;2.30;99.90
30206;DHT22;17010;51.306;3.150;2022-12-04T03:18:00;2.20;99.90
30206;DHT22;17010;51.306;3.150;2022-12-04T03:20:28;2.10;99.90
30206;DHT22;17010;51.306;3.150;2022-12-04T03:22:58;2.10;99.90
30206;DHT22;17010;51.306;3.150;2022-12-04T03:25:31;2.20;99.90
30206;DHT22;17010;51.306;3.150;2022-12-04T03:28:01;2.10;99.90
30206;DHT22;17010;51.306;3.150;2022-12-04T03:30:34;2.00;99.90
30206;DHT22;17010;51.306;3.150;2022-12-04T03:33:34;1.90;99.90
30206;DHT22;17010;51.306;3.150;2022-12-04T03:36:15;2.00;99.90
30206;DHT22;17010;51.306;3.150;2022-12-04T03:38:49;2.00;99.90
30206;DHT22;17010;51.306;3.150;2022-12-04T03:44:14;2.10;99.90
30206;DHT22;17010;51.306;3.150;2022-12-04T03:46:55;2.10;99.90
30206;DHT22;17010;51.306;3.150;2022-12-04T03:56:09;2.10;99.90
30206;DHT22;17010;51.306;3.150;2022-12-04T03:58:05;2.00;99.90
30206;DHT22;17010;51.306;3.150;2022-12-04T04:00:33;2.00;99.90
30206;DHT22;17010;51.306;3.150;2022-12-04T04:03:06;2.00;99.90
30206;DHT22;17010;51.306;3.150;2022-12-04T04:05:33;1.90;99.90
30206;DHT22;17010;51.306;3.150;2022-12-04T04:08:01;1.90;99.90
30206;DHT22;17010;51.306;3.150;2022-12-04T04:10:48;1.80;99.90
30206;DHT22;17010;51.306;3.150;2022-12-04T04:13:17;1.80;99.90
30206;DHT22;17010;51.306;3.150;2022-12-04T04:16:04;1.90;99.90
30206;DHT22;17010;51.306;3.150;2022-12-04T04:18:51;1.90;99.90
30206;DHT22;17010;51.306;3.150;2022-12-04T04:21:37;1.90;99.90
30206;DHT22;17010;51.306;3.150;2022-12-04T04:27:03;1.90;99.90
30206;DHT22;17010;51.306;3.150;2022-12-04T04:29:30;1.80;99.90
30206;DHT22;17010;51.306;3.150;2022-12-04T04:31:58;1.80;99.90
30206;DHT22;17010;51.306;3.150;2022-12-04T04:34:29;1.80;99.90
30206;DHT22;17010;51.306;3.150;2022-12-04T04:37:05;1.70;99.90
30206;DHT22;17010;51.306;3.150;2022-12-04T04:40:04;1.70;99.90
30206;DHT22;17010;51.306;3.150;2022-12-04T04:42:35;1.70;99.90
30206;DHT22;17010;51.306;3.150;2022-12-04T04:45:06;1.70;99.90
30206;DHT22;17010;51.306;3.150;2022-12-04T04:48:11;1.60;99.90
30206;DHT22;17010;51.306;3.150;2022-12-04T04:50:39;1.50;99.90
30206;DHT22;17010;51.306;3.150;2022-12-04T04:53:12;1.50;99.90
30206;DHT22;17010;51.306;3.150;2022-12-04T04:55:40;1.60;99.90
30206;DHT22;17010;51.306;3.150;2022-12-04T04:58:09;1.60;99.90
30206;DHT22;17010;51.306;3.150;2022-12-04T05:00:36;1.60;99.90
30206;DHT22;17010;51.306;3.150;2022-12-04T05:03:03;1.60;99.90
30206;DHT22;17010;51.306;3.150;2022-12-04T05:05:29;1.60;99.90
30206;DHT22;17010;51.306;3.150;2022-12-04T05:07:55;1.60;99.90
30206;DHT22;17010;51.306;3.150;2022-12-04T05:10:22;1.60;99.90
30206;DHT22;17010;51.306;3.150;2022-12-04T05:12:48;1.60;99.90
30206;DHT22;17010;51.306;3.150;2022-12-04T05:15:14;1.70;99.90
30206;DHT22;17010;51.306;3.150;2022-12-04T05:17:41;1.70;99.90
30206;DHT22;17010;51.306;3.150;2022-12-04T05:20:08;1.70;99.90
30206;DHT22;17010;51.306;3.150;2022-12-04T05:22:35;1.70;99.90
30206;DHT22;17010;51.306;3.150;2022-12-04T05:25:03;1.70;99.90
30206;DHT22;17010;51.306;3.150;2022-12-04T05:27:30;1.60;99.90
30206;DHT22;17010;51.306;3.150;2022-12-04T05:29:57;1.70;99.90
30206;DHT22;17010;51.306;3.150;2022-12-04T05:32:25;1.70;99.90
30206;DHT22;17010;51.306;3.150;2022-12-04T05:34:52;1.60;99.90
30206;DHT22;17010;51.306;3.150;2022-12-04T05:37:19;1.60;99.90
30206;DHT22;17010;51.306;3.150;2022-12-04T05:39:46;1.50;99.90
30206;DHT22;17010;51.306;3.150;2022-12-04T05:42:13;1.50;99.90
30206;DHT22;17010;51.306;3.150;2022-12-04T05:44:39;1.70;99.90
30206;DHT22;17010;51.306;3.150;2022-12-04T05:47:06;1.70;99.90
30206;DHT22;17010;51.306;3.150;2022-12-04T05:49:32;1.60;99.90
30206;DHT22;17010;51.306;3.150;2022-12-04T05:51:59;1.60;99.90
30206;DHT22;17010;51.306;3.150;2022-12-04T05:54:26;1.70;99.90
30206;DHT22;17010;51.306;3.150;2022-12-04T05:56:52;1.60;99.90
30206;DHT22;17010;51.306;3.150;2022-12-04T05:59:18;1.70;99.90
30206;DHT22;17010;51.306;3.150;2022-12-04T06:01:45;1.70;99.90
30206;DHT22;17010;51.306;3.150;2022-12-04T06:04:11;1.80;99.90
30206;DHT22;17010;51.306;3.150;2022-12-04T06:06:38;1.80;99.90
30206;DHT22;17010;51.306;3.150;2022-12-04T06:09:05;1.80;99.90
30206;DHT22;17010;51.306;3.150;2022-12-04T06:11:34;1.80;99.90
30206;DHT22;17010;51.306;3.150;2022-12-04T06:14:02;1.80;99.90
30206;DHT22;17010;51.306;3.150;2022-12-04T06:16:33;1.70;99.90
30206;DHT22;17010;51.306;3.150;2022-12-04T06:19:05;1.70;99.90
30206;DHT22;17010;51.306;3.150;2022-12-04T06:21:33;1.70;99.90
30206;DHT22;17010;51.306;3.150;2022-12-04T06:23:59;1.60;99.90
30206;DHT22;17010;51.306;3.150;2022-12-04T06:26:25;1.60;99.90
30206;DHT22;17010;51.306;3.150;2022-12-04T06:28:52;1.50;99.90
30206;DHT22;17010;51.306;3.150;2022-12-04T06:31:19;1.60;99.90
30206;DHT22;17010;51.306;3.150;2022-12-04T06:33:45;1.70;99.90
30206;DHT22;17010;51.306;3.150;2022-12-04T06:36:15;1.70;99.90
30206;DHT22;17010;51.306;3.150;2022-12-04T06:38:42;1.70;99.90
30206;DHT22;17010;51.306;3.150;2022-12-04T06:41:11;1.70;99.90
30206;DHT22;17010;51.306;3.150;2022-12-04T06:43:38;1.70;99.90
30206;DHT22;17010;51.306;3.150;2022-12-04T06:46:07;1.80;99.90
30206;DHT22;17010;51.306;3.150;2022-12-04T06:48:34;1.70;99.90
30206;DHT22;17010;51.306;3.150;2022-12-04T06:51:02;1.70;99.90
30206;DHT22;17010;51.306;3.150;2022-12-04T06:53:29;1.70;99.90
30206;DHT22;17010;51.306;3.150;2022-12-04T06:55:57;1.70;99.90
30206;DHT22;17010;51.306;3.150;2022-12-04T06:58:24;1.70;99.90
30206;DHT22;17010;51.306;3.150;2022-12-04T07:00:50;1.70;99.90
30206;DHT22;17010;51.306;3.150;2022-12-04T07:03:16;1.60;99.90
30206;DHT22;17010;51.306;3.150;2022-12-04T07:05:43;1.60;99.90
30206;DHT22;17010;51.306;3.150;2022-12-04T07:08:09;1.70;99.90
30206;DHT22;17010;51.306;3.150;2022-12-04T07:10:35;1.60;99.90
30206;DHT22;17010;51.306;3.150;2022-12-04T07:13:02;1.60;99.90
30206;DHT22;17010;51.306;3.150;2022-12-04T07:15:29;1.60;99.90
30206;DHT22;17010;51.306;3.150;2022-12-04T07:17:55;1.60;99.90
30206;DHT22;17010;51.306;3.150;2022-12-04T07:20:22;1.60;99.90
30206;DHT22;17010;51.306;3.150;2022-12-04T07:22:48;1.60;99.90
30206;DHT22;17010;51.306;3.150;2022-12-04T07:25:14;1.50;99.90
30206;DHT22;17010;51.306;3.150;2022-12-04T07:27:40;1.40;99.90
30206;DHT22;17010;51.306;3.150;2022-12-04T07:30:07;1.40;99.90
30206;DHT22;17010;51.306;3.150;2022-12-04T07:32:33;1.40;99.90
30206;DHT22;17010;51.306;3.150;2022-12-04T07:34:59;1.40;99.90
30206;DHT22;17010;51.306;3.150;2022-12-04T07:37:25;1.30;99.90
30206;DHT22;17010;51.306;3.150;2022-12-04T07:39:52;1.40;99.90
30206;DHT22;17010;51.306;3.150;2022-12-04T07:42:19;1.50;99.90
30206;DHT22;17010;51.306;3.150;2022-12-04T07:44:45;1.50;99.90
30206;DHT22;17010;51.306;3.150;2022-12-04T07:47:12;1.50;99.90
30206;DHT22;17010;51.306;3.150;2022-12-04T07:49:38;1.50;99.90
30206;DHT22;17010;51.306;3.150;2022-12-04T07:52:04;1.50;99.90
30206;DHT22;17010;51.306;3.150;2022-12-04T07:54:31;1.60;99.90
30206;DHT22;17010;51.306;3.150;2022-12-04T07:56:57;1.60;99.90
30206;DHT22;17010;51.306;3.150;2022-12-04T07:59:23;1.60;99.90
30206;DHT22;17010;51.306;3.150;2022-12-04T08:01:49;1.70;99.90
30206;DHT22;17010;51.306;3.150;2022-12-04T08:04:16;1.60;99.90
30206;DHT22;17010;51.306;3.150;2022-12-04T08:06:42;1.60;99.90
30206;DHT22;17010;51.306;3.150;2022-12-04T08:09:08;1.60;99.90
30206;DHT22;17010;51.306;3.150;2022-12-04T08:11:34;1.50;99.90
30206;DHT22;17010;51.306;3.150;2022-12-04T08:14:02;1.50;99.90
30206;DHT22;17010;51.306;3.150;2022-12-04T08:16:30;1.40;99.90
30206;DHT22;17010;51.306;3.150;2022-12-04T08:18:57;1.40;99.90
30206;DHT22;17010;51.306;3.150;2022-12-04T08:21:25;1.40;99.90
30206;DHT22;17010;51.306;3.150;2022-12-04T08:23:53;1.40;99.90
30206;DHT22;17010;51.306;3.150;2022-12-04T08:26:22;1.40;99.90
30206;DHT22;17010;51.306;3.150;2022-12-04T08:28:52;1.40;99.90
30206;DHT22;17010;51.306;3.150;2022-12-04T08:31:21;1.50;99.90
30206;DHT22;17010;51.306;3.150;2022-12-04T08:33:48;1.60;99.90
30206;DHT22;17010;51.306;3.150;2022-12-04T08:36:18;1.50;99.90
30206;DHT22;17010;51.306;3.150;2022-12-04T08:38:45;1.40;99.90
30206;DHT22;17010;51.306;3.150;2022-12-04T08:41:13;1.50;99.90
30206;DHT22;17010;51.306;3.150;2022-12-04T08:43:40;1.60;99.90
30206;DHT22;17010;51.306;3.150;2022-12-04T08:46:08;1.70;99.90
30206;DHT22;17010;51.306;3.150;2022-12-04T08:48:35;1.60;99.90
30206;DHT22;17010;51.306;3.150;2022-12-04T08:51:02;1.70;99.90
30206;DHT22;17010;51.306;3.150;2022-12-04T08:53:30;1.80;99.90
30206;DHT22;17010;51.306;3.150;2022-12-04T08:55:56;1.80;99.90
30206;DHT22;17010;51.306;3.150;2022-12-04T08:58:22;1.80;99.90
30206;DHT22;17010;51.306;3.150;2022-12-04T09:00:48;2.00;99.90
30206;DHT22;17010;51.306;3.150;2022-12-04T09:03:18;2.00;99.90
30206;DHT22;17010;51.306;3.150;2022-12-04T09:05:45;2.10;99.90
30206;DHT22;17010;51.306;3.150;2022-12-04T09:08:13;2.20;99.90
30206;DHT22;17010;51.306;3.150;2022-12-04T09:10:40;2.20;99.90
30206;DHT22;17010;51.306;3.150;2022-12-04T09:13:06;2.20;99.90
30206;DHT22;17010;51.306;3.150;2022-12-04T09:15:33;2.20;99.90
30206;DHT22;17010;51.306;3.150;2022-12-04T09:17:59;2.20;99.90
30206;DHT22;17010;51.306;3.150;2022-12-04T09:20:25;2.30;99.90
30206;DHT22;17010;51.306;3.150;2022-12-04T09:22:51;2.30;99.90
30206;DHT22;17010;51.306;3.150;2022-12-04T09:25:18;2.30;99.90
30206;DHT22;17010;51.306;3.150;2022-12-04T09:27:44;2.30;99.90
30206;DHT22;17010;51.306;3.150;2022-12-04T09:30:11;2.40;99.90
30206;DHT22;17010;51.306;3.150;2022-12-04T09:32:37;2.40;99.90
30206;DHT22;17010;51.306;3.150;2022-12-04T09:35:05;2.40;99.90
30206;DHT22;17010;51.306;3.150;2022-12-04T09:37:32;2.40;99.90
30206;DHT22;17010;51.306;3.150;2022-12-04T09:39:58;2.40;99.90
30206;DHT22;17010;51.306;3.150;2022-12-04T09:45:45;2.50;99.90
30206;DHT22;17010;51.306;3.150;2022-12-04T09:48:33;2.60;99.90
30206;DHT22;17010;51.306;3.150;2022-12-04T09:51:42;2.60;99.90
30206;DHT22;17010;51.306;3.150;2022-12-04T09:57:57;2.60;99.90
30206;DHT22;17010;51.306;3.150;2022-12-04T10:00:51;2.70;99.90
30206;DHT22;17010;51.306;3.150;2022-12-04T10:03:27;2.60;99.90
30206;DHT22;17010;51.306;3.150;2022-12-04T10:08:43;2.70;99.90
30206;DHT22;17010;51.306;3.150;2022-12-04T10:19:33;2.60;99.90
30206;DHT22;17010;51.306;3.150;2022-12-04T10:22:27;2.70;99.90
30206;DHT22;17010;51.306;3.150;2022-12-04T10:24:59;2.80;99.90
30206;DHT22;17010;51.306;3.150;2022-12-04T10:27:37;2.80;99.90
30206;DHT22;17010;51.306;3.150;2022-12-04T10:30:28;2.90;99.90
30206;DHT22;17010;51.306;3.150;2022-12-04T10:33:15;2.90;99.90
30206;DHT22;17010;51.306;3.150;2022-12-04T10:35:44;2.80;99.90
30206;DHT22;17010;51.306;3.150;2022-12-04T10:41:34;2.80;99.90
30206;DHT22;17010;51.306;3.150;2022-12-04T10:44:03;2.90;99.90
30206;DHT22;17010;51.306;3.150;2022-12-04T10:46:32;2.80;99.90
30206;DHT22;17010;51.306;3.150;2022-12-04T10:49:00;2.80;99.90
30206;DHT22;17010;51.306;3.150;2022-12-04T10:51:30;2.80;99.90
30206;DHT22;17010;51.306;3.150;2022-12-04T10:53:57;2.80;99.90
30206;DHT22;17010;51.306;3.150;2022-12-04T10:56:24;2.90;99.90
30206;DHT22;17010;51.306;3.150;2022-12-04T10:58:59;2.90;99.90
30206;DHT22;17010;51.306;3.150;2022-12-04T11:01:30;3.00;99.90
30206;DHT22;17010;51.306;3.150;2022-12-04T11:04:03;2.90;99.90
30206;DHT22;17010;51.306;3.150;2022-12-04T11:06:30;3.00;99.90
30206;DHT22;17010;51.306;3.150;2022-12-04T11:08:57;3.00;99.90
30206;DHT22;17010;51.306;3.150;2022-12-04T11:11:32;3.00;99.90
30206;DHT22;17010;51.306;3.150;2022-12-04T11:14:11;3.00;99.90
30206;DHT22;17010;51.306;3.150;2022-12-04T11:16:40;3.00;99.90
30206;DHT22;17010;51.306;3.150;2022-12-04T11:19:23;3.00;99.90
30206;DHT22;17010;51.306;3.150;2022-12-04T11:21:51;3.00;99.90
30206;DHT22;17010;51.306;3.150;2022-12-04T11:24:33;3.10;99.90
30206;DHT22;17010;51.306;3.150;2022-12-04T11:27:01;3.00;99.90
30206;DHT22;17010;51.306;3.150;2022-12-04T11:29:36;3.00;99.90
30206;DHT22;17010;51.306;3.150;2022-12-04T11:32:03;3.00;99.90
30206;DHT22;17010;51.306;3.150;2022-12-04T11:34:39;3.00;99.90
30206;DHT22;17010;51.306;3.150;2022-12-04T11:37:23;3.00;99.90
30206;DHT22;17010;51.306;3.150;2022-12-04T11:39:50;3.00;99.90
30206;DHT22;17010;51.306;3.150;2022-12-04T11:42:21;3.00;99.90
30206;DHT22;17010;51.306;3.150;2022-12-04T11:45:02;2.90;99.90
30206;DHT22;17010;51.306;3.150;2022-12-04T11:47:31;3.00;99.90
30206;DHT22;17010;51.306;3.150;2022-12-04T11:50:14;3.00;99.90
30206;DHT22;17010;51.306;3.150;2022-12-04T11:53:16;3.00;99.90
30206;DHT22;17010;51.306;3.150;2022-12-04T11:57:04;3.00;99.90
30206;DHT22;17010;51.306;3.150;2022-12-04T11:59:21;3.00;99.90
30206;DHT22;17010;51.306;3.150;2022-12-04T12:01:57;2.90;99.90
30206;DHT22;17010;51.306;3.150;2022-12-04T12:12:42;2.90;99.90
30206;DHT22;17010;51.306;3.150;2022-12-04T12:17:58;2.90;99.90
30206;DHT22;17010;51.306;3.150;2022-12-04T12:20:59;3.00;99.90
30206;DHT22;17010;51.306;3.150;2022-12-04T12:34:09;3.10;99.90
30206;DHT22;17010;51.306;3.150;2022-12-04T12:36:44;3.10;99.90
30206;DHT22;17010;51.306;3.150;2022-12-04T12:46:20;3.30;99.90
30206;DHT22;17010;51.306;3.150;2022-12-04T13:02:46;3.30;99.90
30206;DHT22;17010;51.306;3.150;2022-12-04T13:05:49;3.10;99.90
30206;DHT22;17010;51.306;3.150;2022-12-04T13:11:22;3.10;99.90
30206;DHT22;17010;51.306;3.150;2022-12-04T13:13:55;3.10;99.90
30206;DHT22;17010;51.306;3.150;2022-12-04T13:19:04;3.20;99.90
30206;DHT22;17010;51.306;3.150;2022-12-04T13:38:25;2.90;99.90
30206;DHT22;17010;51.306;3.150;2022-12-04T13:40:58;2.90;99.90
30206;DHT22;17010;51.306;3.150;2022-12-04T13:43:36;3.00;99.90
30206;DHT22;17010;51.306;3.150;2022-12-04T13:51:45;3.10;99.90
30206;DHT22;17010;51.306;3.150;2022-12-04T13:56:43;3.00;99.90
30206;DHT22;17010;51.306;3.150;2022-12-04T13:59:23;2.90;99.90
30206;DHT22;17010;51.306;3.150;2022-12-04T14:04:50;2.80;99.90
30206;DHT22;17010;51.306;3.150;2022-12-04T14:07:30;2.90;99.90
30206;DHT22;17010;51.306;3.150;2022-12-04T14:09:58;2.90;99.90
30206;DHT22;17010;51.306;3.150;2022-12-04T14:12:29;2.90;99.90
30206;DHT22;17010;51.306;3.150;2022-12-04T14:14:57;2.90;99.90
30206;DHT22;17010;51.306;3.150;2022-12-04T14:17:32;3.00;99.90
30206;DHT22;17010;51.306;3.150;2022-12-04T14:20:27;2.90;99.90
30206;DHT22;17010;51.306;3.150;2022-12-04T14:22:52;2.90;99.90
30206;DHT22;17010;51.306;3.150;2022-12-04T14:25:40;2.80;99.90
30206;DHT22;17010;51.306;3.150;2022-12-04T14:28:35;2.70;99.90
30206;DHT22;17010;51.306;3.150;2022-12-04T14:33:58;2.80;99.90
30206;DHT22;17010;51.306;3.150;2022-12-04T14:36:35;2.80;99.90
30206;DHT22;17010;51.306;3.150;2022-12-04T14:41:46;2.80;99.90
30206;DHT22;17010;51.306;3.150;2022-12-04T14:44:27;2.90;99.90
30206;DHT22;17010;51.306;3.150;2022-12-04T14:46:56;2.90;99.90
30206;DHT22;17010;51.306;3.150;2022-12-04T14:49:46;2.90;99.90
30206;DHT22;17010;51.306;3.150;2022-12-04T14:52:36;2.90;99.90
30206;DHT22;17010;51.306;3.150;2022-12-04T14:58:00;2.80;99.90
30206;DHT22;17010;51.306;3.150;2022-12-04T15:00:25;2.70;99.90
30206;DHT22;17010;51.306;3.150;2022-12-04T15:02:56;2.60;99.90
30206;DHT22;17010;51.306;3.150;2022-12-04T15:05:30;2.60;99.90
30206;DHT22;17010;51.306;3.150;2022-12-04T15:08:01;2.70;99.90
30206;DHT22;17010;51.306;3.150;2022-12-04T15:10:32;2.70;99.90
30206;DHT22;17010;51.306;3.150;2022-12-04T15:13:31;2.60;99.90
30206;DHT22;17010;51.306;3.150;2022-12-04T15:16:06;2.60;99.90
30206;DHT22;17010;51.306;3.150;2022-12-04T15:18:33;2.70;99.90
30206;DHT22;17010;51.306;3.150;2022-12-04T15:20:59;2.70;99.90
30206;DHT22;17010;51.306;3.150;2022-12-04T15:23:37;2.70;99.90
30206;DHT22;17010;51.306;3.150;2022-12-04T15:26:23;2.50;99.90
30206;DHT22;17010;51.306;3.150;2022-12-04T15:28:51;2.40;99.90
30206;DHT22;17010;51.306;3.150;2022-12-04T15:31:21;2.50;99.90
30206;DHT22;17010;51.306;3.150;2022-12-04T15:33:50;2.60;99.90
30206;DHT22;17010;51.306;3.150;2022-12-04T15:39:16;2.70;99.90
30206;DHT22;17010;51.306;3.150;2022-12-04T15:41:43;2.60;99.90
30206;DHT22;17010;51.306;3.150;2022-12-04T15:46:51;2.50;99.90
30206;DHT22;17010;51.306;3.150;2022-12-04T15:49:24;2.50;99.90
30206;DHT22;17010;51.306;3.150;2022-12-04T15:52:01;2.60;99.90
30206;DHT22;17010;51.306;3.150;2022-12-04T15:54:28;2.60;99.90
30206;DHT22;17010;51.306;3.150;2022-12-04T15:57:04;2.50;99.90
30206;DHT22;17010;51.306;3.150;2022-12-04T15:59:33;2.40;99.90
30206;DHT22;17010;51.306;3.150;2022-12-04T16:07:59;2.30;99.90
30206;DHT22;17010;51.306;3.150;2022-12-04T16:10:54;2.30;99.90
30206;DHT22;17010;51.306;3.150;2022-12-04T16:16:43;2.20;99.90
30206;DHT22;17010;51.306;3.150;2022-12-04T16:19:32;2.20;99.90
30206;DHT22;17010;51.306;3.150;2022-12-04T16:22:00;2.10;99.90
30206;DHT22;17010;51.306;3.150;2022-12-04T16:24:27;2.20;99.90
30206;DHT22;17010;51.306;3.150;2022-12-04T16:26:54;2.10;99.90
30206;DHT22;17010;51.306;3.150;2022-12-04T16:29:22;2.10;99.90
30206;DHT22;17010;51.306;3.150;2022-12-04T16:31:49;2.20;99.90
30206;DHT22;17010;51.306;3.150;2022-12-04T16:34:32;2.20;99.90
30206;DHT22;17010;51.306;3.150;2022-12-04T16:37:18;2.20;99.90
30206;DHT22;17010;51.306;3.150;2022-12-04T16:40:01;2.20;99.90
30206;DHT22;17010;51.306;3.150;2022-12-04T16:42:31;2.20;99.90
30206;DHT22;17010;51.306;3.150;2022-12-04T16:44:57;2.10;99.90
30206;DHT22;17010;51.306;3.150;2022-12-04T16:47:23;2.10;99.90
30206;DHT22;17010;51.306;3.150;2022-12-04T16:49:50;2.10;99.90
30206;DHT22;17010;51.306;3.150;2022-12-04T16:52:18;2.00;99.90
30206;DHT22;17010;51.306;3.150;2022-12-04T16:54:44;2.10;99.90
30206;DHT22;17010;51.306;3.150;2022-12-04T16:57:10;2.10;99.90
30206;DHT22;17010;51.306;3.150;2022-12-04T16:59:37;2.10;99.90
30206;DHT22;17010;51.306;3.150;2022-12-04T17:02:24;2.00;99.90
30206;DHT22;17010;51.306;3.150;2022-12-04T17:04:51;2.00;99.90
30206;DHT22;17010;51.306;3.150;2022-12-04T17:07:17;2.10;99.90
30206;DHT22;17010;51.306;3.150;2022-12-04T17:09:43;2.10;99.90
30206;DHT22;17010;51.306;3.150;2022-12-04T17:12:09;2.10;99.90
30206;DHT22;17010;51.306;3.150;2022-12-04T17:14:35;2.20;99.90
30206;DHT22;17010;51.306;3.150;2022-12-04T17:17:01;2.20;99.90
30206;DHT22;17010;51.306;3.150;2022-12-04T17:19:28;2.20;99.90
30206;DHT22;17010;51.306;3.150;2022-12-04T17:21:54;2.20;99.90
30206;DHT22;17010;51.306;3.150;2022-12-04T17:24:20;2.20;99.90
30206;DHT22;17010;51.306;3.150;2022-12-04T17:26:47;2.20;99.90
30206;DHT22;17010;51.306;3.150;2022-12-04T17:29:13;2.10;99.90
30206;DHT22;17010;51.306;3.150;2022-12-04T17:31:39;2.20;99.90
30206;DHT22;17010;51.306;3.150;2022-12-04T17:34:08;2.20;99.90
30206;DHT22;17010;51.306;3.150;2022-12-04T17:36:34;2.20;99.90
30206;DHT22;17010;51.306;3.150;2022-12-04T17:39:00;2.10;99.90
30206;DHT22;17010;51.306;3.150;2022-12-04T17:41:26;2.00;99.90
30206;DHT22;17010;51.306;3.150;2022-12-04T17:43:59;2.10;99.90
30206;DHT22;17010;51.306;3.150;2022-12-04T17:46:26;2.10;99.90
30206;DHT22;17010;51.306;3.150;2022-12-04T17:48:55;2.10;99.90
30206;DHT22;17010;51.306;3.150;2022-12-04T17:51:23;2.10;99.90
30206;DHT22;17010;51.306;3.150;2022-12-04T17:53:49;2.20;99.90
30206;DHT22;17010;51.306;3.150;2022-12-04T17:56:18;2.30;99.90
30206;DHT22;17010;51.306;3.150;2022-12-04T17:58:45;2.30;99.90
30206;DHT22;17010;51.306;3.150;2022-12-04T18:01:19;2.40;99.90
30206;DHT22;17010;51.306;3.150;2022-12-04T18:03:53;2.40;99.90
30206;DHT22;17010;51.306;3.150;2022-12-04T18:06:23;2.30;99.90
30206;DHT22;17010;51.306;3.150;2022-12-04T18:08:50;2.30;99.90
30206;DHT22;17010;51.306;3.150;2022-12-04T18:11:17;2.30;99.90
30206;DHT22;17010;51.306;3.150;2022-12-04T18:13:52;2.40;99.90
30206;DHT22;17010;51.306;3.150;2022-12-04T18:19:42;2.30;99.90
30206;DHT22;17010;51.306;3.150;2022-12-04T18:22:20;2.30;99.90
30206;DHT22;17010;51.306;3.150;2022-12-04T18:24:46;2.30;99.90
30206;DHT22;17010;51.306;3.150;2022-12-04T18:27:13;2.30;99.90
30206;DHT22;17010;51.306;3.150;2022-12-04T18:29:39;2.30;99.90
30206;DHT22;17010;51.306;3.150;2022-12-04T18:32:05;2.30;99.90
30206;DHT22;17010;51.306;3.150;2022-12-04T18:34:31;2.30;99.90
30206;DHT22;17010;51.306;3.150;2022-12-04T18:36:58;2.30;99.90
30206;DHT22;17010;51.306;3.150;2022-12-04T18:39:33;2.30;99.90
30206;DHT22;17010;51.306;3.150;2022-12-04T18:42:11;2.20;99.90
30206;DHT22;17010;51.306;3.150;2022-12-04T18:44:38;2.20;99.90